createdAt,value
2018-04-23T00:00:37.061Z,97.70
2018-04-23T00:03:03.361Z,97.90
2018-04-23T00:05:29.665Z,97.70
2018-04-23T00:07:55.936Z,97.40
2018-04-23T00:10:22.253Z,97.30
2018-04-23T00:12:49.577Z,97.00
2018-04-23T00:15:16.617Z,96.80
2018-04-23T00:17:43.660Z,97.00
2018-04-23T00:20:10.721Z,97.30
2018-04-23T00:22:37.765Z,97.60
2018-04-23T00:25:04.816Z,97.40
2018-04-23T00:27:31.831Z,97.90
2018-04-23T00:29:58.133Z,97.90
2018-04-23T00:32:24.424Z,97.40
2018-04-23T00:34:50.693Z,98.00
2018-04-23T00:37:18.027Z,97.30
2018-04-23T00:39:44.297Z,97.60
2018-04-23T00:42:10.613Z,97.30
2018-04-23T00:44:36.896Z,97.60
2018-04-23T00:47:03.193Z,97.60
2018-04-23T00:49:29.519Z,97.90
2018-04-23T00:51:55.810Z,98.10
2018-04-23T00:54:22.115Z,98.50
2018-04-23T00:56:48.420Z,99.20
2018-04-23T00:59:15.477Z,99.90
2018-04-23T01:01:42.491Z,99.90
2018-04-23T01:04:08.776Z,99.90
2018-04-23T01:06:35.093Z,99.90
2018-04-23T01:09:02.173Z,99.90
2018-04-23T01:11:28.469Z,99.90
2018-04-23T01:13:55.489Z,99.90
2018-04-23T01:16:21.769Z,99.90
2018-04-23T01:18:48.076Z,99.90
2018-04-23T01:21:14.393Z,99.90
2018-04-23T01:23:41.440Z,99.90
2018-04-23T01:26:08.457Z,99.90
2018-04-23T01:28:34.894Z,99.90
2018-04-23T01:31:01.221Z,99.90
2018-04-23T01:33:27.562Z,99.90
2018-04-23T01:35:53.933Z,99.90
2018-04-23T01:38:22.041Z,99.90
2018-04-23T01:40:48.373Z,99.90
2018-04-23T01:43:14.904Z,99.90
2018-04-23T01:45:41.252Z,99.90
2018-04-23T01:48:07.571Z,99.90
2018-04-23T01:50:33.892Z,99.90
2018-04-23T01:53:00.210Z,99.90
2018-04-23T01:55:26.525Z,99.90
2018-04-23T01:57:52.848Z,99.90
2018-04-23T02:00:19.922Z,99.90
2018-04-23T02:02:46.273Z,99.90
2018-04-23T02:05:12.600Z,99.90
2018-04-23T02:07:38.904Z,99.90
2018-04-23T02:10:05.257Z,99.90
2018-04-23T02:12:31.585Z,99.90
2018-04-23T02:14:58.909Z,99.90
2018-04-23T02:17:26.220Z,99.90
2018-04-23T02:19:52.541Z,99.90
2018-04-23T02:22:18.889Z,99.90
2018-04-23T02:24:45.257Z,99.90
2018-04-23T02:27:12.324Z,99.90
2018-04-23T02:29:38.675Z,99.90
2018-04-23T02:32:05.625Z,99.90
2018-04-23T02:34:32.469Z,99.90
2018-04-23T02:36:58.809Z,99.90
2018-04-23T02:39:25.145Z,99.90
2018-04-23T02:41:51.477Z,99.90
2018-04-23T02:44:17.788Z,99.90
2018-04-23T02:46:45.149Z,99.90
2018-04-23T02:49:11.512Z,99.90
2018-04-23T02:51:38.612Z,99.90
2018-04-23T02:54:04.945Z,99.90
2018-04-23T02:56:31.289Z,99.90
2018-04-23T02:58:57.653Z,99.90
2018-04-23T03:01:24.734Z,99.90
2018-04-23T03:03:51.088Z,99.90
2018-04-23T03:06:17.425Z,99.90
2018-04-23T03:08:43.767Z,99.90
2018-04-23T03:11:10.138Z,99.90
2018-04-23T03:13:37.208Z,99.90
2018-04-23T03:16:04.622Z,99.90
2018-04-23T03:18:30.969Z,99.90
2018-04-23T03:20:58.053Z,99.90
2018-04-23T03:23:24.396Z,99.90
2018-04-23T03:25:50.761Z,99.90
2018-04-23T03:28:17.082Z,99.90
2018-04-23T03:30:44.176Z,99.90
2018-04-23T03:33:10.527Z,99.90
2018-04-23T03:35:36.836Z,99.90
2018-04-23T03:38:03.160Z,99.90
2018-04-23T03:40:29.475Z,99.90
2018-04-23T03:42:56.537Z,99.90
2018-04-23T03:45:22.885Z,99.90
2018-04-23T03:47:49.208Z,99.90
2018-04-23T03:50:15.537Z,99.90
2018-04-23T03:52:41.864Z,99.90
2018-04-23T03:55:08.214Z,99.90
2018-04-23T03:57:34.536Z,99.90
2018-04-23T04:00:00.870Z,99.90
2018-04-23T04:02:27.221Z,99.90
2018-04-23T04:04:53.548Z,99.90
2018-04-23T04:07:19.907Z,99.90
2018-04-23T04:09:46.227Z,99.90
2018-04-23T04:12:24.780Z,99.90
2018-04-23T04:15:04.204Z,99.90
2018-04-23T04:17:38.597Z,99.90
2018-04-23T04:20:06.477Z,99.90
2018-04-23T04:22:33.321Z,99.90
2018-04-23T04:24:59.661Z,99.90
2018-04-23T04:27:26.956Z,99.90
2018-04-23T04:29:54.310Z,99.90
2018-04-23T04:32:20.628Z,99.90
2018-04-23T04:34:47.685Z,99.90
2018-04-23T04:37:14.034Z,99.90
2018-04-23T04:39:40.373Z,99.90
2018-04-23T04:42:06.689Z,99.90
2018-04-23T04:44:33.058Z,99.90
2018-04-23T04:46:59.385Z,99.90
2018-04-23T04:49:25.698Z,99.90
2018-04-23T04:51:52.044Z,99.90
2018-04-23T04:54:18.365Z,99.90
2018-04-23T04:56:44.833Z,99.90
2018-04-23T04:59:11.162Z,99.90
2018-04-23T05:01:37.489Z,99.90
2018-04-23T05:04:03.840Z,99.90
2018-04-23T05:06:30.917Z,99.90
2018-04-23T05:08:57.233Z,99.90
2018-04-23T05:11:24.284Z,99.90
2018-04-23T05:13:51.347Z,99.90
2018-04-23T05:16:17.998Z,99.90
2018-04-23T05:18:44.321Z,99.90
2018-04-23T05:21:10.632Z,99.90
2018-04-23T05:23:37.032Z,99.90
2018-04-23T05:26:03.357Z,99.90
2018-04-23T05:28:29.681Z,99.90
2018-04-23T05:30:55.994Z,99.90
2018-04-23T05:33:22.324Z,99.90
2018-04-23T05:35:48.645Z,99.90
2018-04-23T05:38:15.013Z,99.90
2018-04-23T05:40:42.137Z,99.90
2018-04-23T05:43:08.535Z,99.90
2018-04-23T05:45:34.880Z,99.90
2018-04-23T05:48:01.221Z,99.90
2018-04-23T05:50:28.536Z,99.90
2018-04-23T05:52:55.593Z,99.90
2018-04-23T05:55:22.653Z,99.90
2018-04-23T05:57:49.856Z,99.90
2018-04-23T06:00:16.168Z,99.90
2018-04-23T06:02:42.464Z,99.90
2018-04-23T06:05:08.897Z,99.90
2018-04-23T06:07:35.225Z,99.90
2018-04-23T06:10:01.542Z,99.90
2018-04-23T06:12:27.914Z,99.90
2018-04-23T06:14:54.240Z,99.90
2018-04-23T06:17:20.592Z,99.90
2018-04-23T06:19:46.992Z,99.90
2018-04-23T06:22:13.273Z,99.90
2018-04-23T06:24:39.604Z,99.90
2018-04-23T06:27:05.910Z,99.90
2018-04-23T06:29:32.222Z,99.90
2018-04-23T06:31:58.553Z,99.90
2018-04-23T06:34:24.893Z,99.90
2018-04-23T06:36:51.217Z,99.90
2018-04-23T06:39:17.528Z,99.90
2018-04-23T06:41:44.574Z,99.90
2018-04-23T06:44:10.889Z,99.90
2018-04-23T06:46:37.940Z,99.90
2018-04-23T06:49:05.001Z,99.90
2018-04-23T06:51:31.320Z,99.90
2018-04-23T06:53:57.635Z,99.90
2018-04-23T06:56:24.809Z,99.90
2018-04-23T06:58:51.117Z,99.90
2018-04-23T07:01:19.194Z,99.90
2018-04-23T07:03:46.295Z,99.90
2018-04-23T07:06:12.641Z,99.90
2018-04-23T07:08:38.972Z,99.90
2018-04-23T07:11:05.285Z,99.90
2018-04-23T07:13:31.615Z,99.90
2018-04-23T07:15:57.931Z,99.90
2018-04-23T07:18:24.266Z,99.90
2018-04-23T07:20:50.578Z,99.90
2018-04-23T07:23:16.940Z,99.90
2018-04-23T07:25:43.276Z,99.90
2018-04-23T07:28:09.590Z,99.90
2018-04-23T07:30:35.901Z,99.90
2018-04-23T07:33:02.231Z,99.90
2018-04-23T07:35:28.556Z,99.90
2018-04-23T07:37:54.999Z,99.90
2018-04-23T07:40:21.309Z,99.90
2018-04-23T07:42:48.365Z,99.90
2018-04-23T07:45:14.739Z,99.90
2018-04-23T07:47:41.061Z,99.90
2018-04-23T07:50:07.381Z,99.90
2018-04-23T07:52:33.697Z,99.90
2018-04-23T07:55:00.013Z,99.90
2018-04-23T07:57:27.081Z,99.90
2018-04-23T07:59:53.447Z,99.90
2018-04-23T08:02:19.758Z,99.90
2018-04-23T08:04:46.092Z,99.90
2018-04-23T08:07:12.424Z,99.90
2018-04-23T08:09:38.788Z,99.20
2018-04-23T08:12:06.105Z,99.90
2018-04-23T08:14:32.418Z,99.90
2018-04-23T08:16:58.724Z,94.10
2018-04-23T08:19:25.807Z,90.90
2018-04-23T08:21:52.109Z,90.90
2018-04-23T08:24:19.157Z,91.10
2018-04-23T08:26:47.255Z,84.60
2018-04-23T08:29:13.557Z,85.30
2018-04-23T08:31:40.612Z,83.40
2018-04-23T08:34:06.968Z,83.50
2018-04-23T08:36:33.281Z,80.80
2018-04-23T08:38:59.612Z,82.10
2018-04-23T08:41:26.593Z,80.50
2018-04-23T08:43:52.896Z,79.90
2018-04-23T08:46:19.277Z,77.60
2018-04-23T08:48:45.592Z,80.20
2018-04-23T08:51:11.914Z,78.70
2018-04-23T08:53:38.231Z,77.90
2018-04-23T08:56:04.537Z,78.30
2018-04-23T08:58:31.601Z,77.50
2018-04-23T09:00:57.921Z,77.40
2018-04-23T09:03:24.965Z,77.70
2018-04-23T09:05:52.025Z,75.10
2018-04-23T09:08:18.324Z,75.10
2018-04-23T09:10:45.384Z,74.00
2018-04-23T09:13:12.448Z,76.40
2018-04-23T09:15:38.764Z,76.30
2018-04-23T09:18:06.104Z,72.90
2018-04-23T09:20:33.177Z,75.30
2018-04-23T09:22:59.484Z,75.20
2018-04-23T09:25:26.536Z,72.90
2018-04-23T09:27:53.585Z,75.30
2018-04-23T09:30:20.641Z,72.60
2018-04-23T09:32:47.685Z,73.00
2018-04-23T09:35:14.745Z,74.30
2018-04-23T09:37:41.073Z,74.30
2018-04-23T09:40:07.389Z,73.10
2018-04-23T09:42:34.453Z,74.50
2018-04-23T09:45:00.798Z,74.20
2018-04-23T09:47:27.146Z,66.90
2018-04-23T09:49:53.468Z,66.70
2018-04-23T09:52:19.781Z,67.70
2018-04-23T09:54:46.097Z,62.70
2018-04-23T09:57:13.169Z,61.40
2018-04-23T09:59:39.489Z,61.40
2018-04-23T10:02:05.804Z,62.40
2018-04-23T10:04:32.870Z,59.30
2018-04-23T10:06:59.197Z,59.30
2018-04-23T10:09:25.551Z,60.80
2018-04-23T10:11:53.104Z,58.80
2018-04-23T10:14:19.411Z,58.60
2018-04-23T10:16:46.458Z,62.70
2018-04-23T10:19:13.548Z,63.80
2018-04-23T10:21:39.904Z,63.80
2018-04-23T10:24:06.244Z,60.80
2018-04-23T10:26:32.586Z,63.70
2018-04-23T10:28:59.632Z,66.50
2018-04-23T10:31:26.741Z,66.60
2018-04-23T10:33:53.029Z,65.80
2018-04-23T10:36:20.088Z,63.80
2018-04-23T10:38:46.416Z,63.80
2018-04-23T10:41:12.741Z,67.70
2018-04-23T10:43:39.060Z,64.40
2018-04-23T10:46:06.121Z,62.90
2018-04-23T10:48:32.428Z,63.00
2018-04-23T10:51:00.535Z,60.70
2018-04-23T10:53:26.889Z,60.60
2018-04-23T10:55:53.207Z,63.60
2018-04-23T10:58:20.569Z,64.10
2018-04-23T11:00:46.897Z,61.70
2018-04-23T11:03:13.229Z,61.20
2018-04-23T11:05:40.565Z,63.90
2018-04-23T11:08:07.873Z,63.50
2018-04-23T11:10:34.198Z,64.90
2018-04-23T11:13:00.515Z,67.70
2018-04-23T11:15:26.848Z,66.10
2018-04-23T11:17:54.661Z,66.40
2018-04-23T11:20:20.985Z,66.40
2018-04-23T11:22:48.032Z,62.60
2018-04-23T11:25:15.097Z,64.40
2018-04-23T11:27:41.409Z,64.30
2018-04-23T11:30:08.477Z,62.70
2018-04-23T11:32:34.797Z,62.60
2018-04-23T11:35:01.129Z,60.80
2018-04-23T11:37:27.453Z,61.30
2018-04-23T11:39:54.500Z,60.70
2018-04-23T11:42:21.561Z,60.50
2018-04-23T11:44:47.882Z,60.50
2018-04-23T11:47:14.245Z,63.10
2018-04-23T11:49:40.555Z,59.60
2018-04-23T11:52:06.887Z,63.50
2018-04-23T11:54:33.203Z,61.30
2018-04-23T11:57:00.245Z,64.10
2018-04-23T11:59:27.324Z,64.20
2018-04-23T12:01:53.662Z,64.20
2018-04-23T12:04:19.994Z,61.90
2018-04-23T12:06:46.331Z,61.40
2018-04-23T12:09:12.674Z,62.20
2018-04-23T12:11:39.008Z,63.40
2018-04-23T12:14:05.344Z,64.10
2018-04-23T12:16:32.669Z,65.10
2018-04-23T12:18:59.994Z,63.90
2018-04-23T12:21:26.326Z,64.70
2018-04-23T12:23:52.664Z,64.30
2018-04-23T12:26:18.977Z,67.60
2018-04-23T12:28:46.029Z,63.30
2018-04-23T12:31:12.362Z,63.30
2018-04-23T12:33:38.686Z,66.00
2018-04-23T12:36:05.740Z,64.70
2018-04-23T12:38:32.057Z,64.40
2018-04-23T12:40:59.121Z,61.20
2018-04-23T12:43:25.456Z,61.10
2018-04-23T12:45:51.827Z,59.20
2018-04-23T12:48:18.100Z,59.90
2018-04-23T12:50:45.156Z,61.80
2018-04-23T12:53:11.472Z,61.60
2018-04-23T12:55:38.536Z,58.20
2018-04-23T12:58:04.873Z,58.20
2018-04-23T13:00:31.206Z,58.20
2018-04-23T13:02:57.548Z,59.00
2018-04-23T13:05:23.857Z,61.50
2018-04-23T13:07:50.171Z,62.50
2018-04-23T13:10:17.245Z,59.70
2018-04-23T13:12:43.626Z,59.70
2018-04-23T13:15:09.931Z,57.20
2018-04-23T13:17:36.255Z,57.90
2018-04-23T13:20:02.597Z,59.50
2018-04-23T13:22:28.917Z,56.70
2018-04-23T13:24:55.250Z,57.90
2018-04-23T13:27:21.565Z,58.90
2018-04-23T13:29:47.877Z,58.00
2018-04-23T13:32:14.951Z,55.90
2018-04-23T13:34:41.278Z,55.90
2018-04-23T13:37:07.594Z,60.40
2018-04-23T13:39:33.892Z,62.30
2018-04-23T13:42:00.234Z,59.60
2018-04-23T13:44:27.289Z,58.50
2018-04-23T13:46:54.336Z,58.70
2018-04-23T13:49:21.416Z,57.50
2018-04-23T13:51:47.716Z,57.40
2018-04-23T13:54:14.789Z,57.80
2018-04-23T13:56:41.145Z,57.80
2018-04-23T13:59:07.470Z,58.10
2018-04-23T14:01:33.812Z,62.60
2018-04-23T14:04:00.177Z,66.30
2018-04-23T14:06:27.229Z,68.90
2018-04-23T14:08:54.275Z,70.60
2018-04-23T14:11:21.416Z,71.40
2018-04-23T14:13:48.501Z,72.70
2018-04-23T14:16:14.829Z,72.60
2018-04-23T14:18:41.143Z,73.00
2018-04-23T14:21:08.212Z,75.90
2018-04-23T14:23:34.545Z,75.80
2018-04-23T14:26:00.892Z,76.40
2018-04-23T14:28:27.216Z,77.20
2018-04-23T14:30:53.540Z,76.00
2018-04-23T14:33:19.847Z,75.60
2018-04-23T14:35:46.932Z,76.90
2018-04-23T14:38:13.265Z,76.80
2018-04-23T14:40:39.601Z,77.70
2018-04-23T14:43:05.918Z,77.20
2018-04-23T14:45:32.248Z,77.50
2018-04-23T14:47:59.600Z,76.90
2018-04-23T14:50:25.953Z,76.20
2018-04-23T14:52:52.273Z,76.60
2018-04-23T14:55:18.605Z,76.30
2018-04-23T14:57:44.961Z,77.80
2018-04-23T15:00:11.276Z,76.90
2018-04-23T15:02:37.601Z,78.70
2018-04-23T15:05:04.044Z,79.30
2018-04-23T15:07:30.356Z,77.90
2018-04-23T15:09:56.672Z,78.80
2018-04-23T15:12:22.984Z,81.00
2018-04-23T15:14:49.311Z,79.40
2018-04-23T15:17:15.613Z,79.40
2018-04-23T15:19:42.665Z,74.90
2018-04-23T15:22:09.765Z,76.20
2018-04-23T15:24:37.101Z,76.20
2018-04-23T15:27:03.433Z,78.70
2018-04-23T15:29:29.750Z,79.90
2018-04-23T15:31:56.094Z,80.80
2018-04-23T15:34:23.253Z,74.90
2018-04-23T15:36:49.829Z,74.90
2018-04-23T15:39:16.158Z,75.00
2018-04-23T15:41:42.753Z,74.80
2018-04-23T15:44:09.126Z,72.00
2018-04-23T15:46:35.442Z,71.30
2018-04-23T15:49:01.773Z,70.40
2018-04-23T15:51:28.110Z,70.10
2018-04-23T15:53:54.432Z,72.60
2018-04-23T15:56:20.752Z,72.40
2018-04-23T15:58:47.081Z,74.70
2018-04-23T16:01:13.433Z,74.20
2018-04-23T16:03:39.741Z,74.90
2018-04-23T16:06:06.090Z,74.00
2018-04-23T16:08:32.442Z,74.50
2018-04-23T16:10:58.758Z,72.40
2018-04-23T16:13:25.085Z,74.20
2018-04-23T16:15:51.444Z,74.50
2018-04-23T16:18:18.507Z,76.90
2018-04-23T16:20:45.579Z,77.50
2018-04-23T16:23:11.884Z,77.40
2018-04-23T16:25:38.937Z,77.40
2018-04-23T16:28:05.301Z,77.40
2018-04-23T16:30:32.224Z,77.80
2018-04-23T16:32:58.544Z,73.80
2018-04-23T16:35:24.877Z,74.70
2018-04-23T16:37:51.193Z,75.10
2018-04-23T16:40:18.274Z,76.30
2018-04-23T16:42:44.589Z,76.20
2018-04-23T16:45:10.903Z,75.40
2018-04-23T16:47:37.966Z,76.40
2018-04-23T16:50:04.304Z,76.30
2018-04-23T16:52:31.378Z,77.30
2018-04-23T16:54:59.438Z,77.00
2018-04-23T16:57:25.753Z,77.00
2018-04-23T16:59:52.829Z,79.70
2018-04-23T17:02:20.148Z,78.90
2018-04-23T17:04:46.456Z,79.80
2018-04-23T17:07:13.533Z,83.10
2018-04-23T17:09:39.849Z,83.00
2018-04-23T17:12:06.249Z,84.00
2018-04-23T17:14:33.333Z,86.90
2018-04-23T17:16:59.661Z,86.80
2018-04-23T17:19:26.016Z,88.30
2018-04-23T17:21:52.356Z,89.70
2018-04-23T17:24:18.691Z,90.20
2018-04-23T17:26:45.067Z,90.50
2018-04-23T17:29:12.157Z,91.50
2018-04-23T17:31:38.524Z,91.50
2018-04-23T17:34:04.860Z,92.10
2018-04-23T17:36:31.957Z,92.70
2018-04-23T17:38:58.277Z,92.60
2018-04-23T17:41:24.584Z,93.50
2018-04-23T17:43:51.648Z,94.10
2018-04-23T17:46:17.980Z,94.10
2018-04-23T17:48:45.035Z,95.30
2018-04-23T17:51:11.369Z,95.30
2018-04-23T17:53:37.704Z,95.90
2018-04-23T17:56:04.087Z,96.20
2018-04-23T17:58:30.430Z,96.70
2018-04-23T18:00:56.766Z,97.20
2018-04-23T18:03:23.082Z,97.40
2018-04-23T18:05:50.196Z,98.30
2018-04-23T18:08:16.497Z,98.30
2018-04-23T18:10:43.605Z,99.00
2018-04-23T18:13:10.995Z,99.00
2018-04-23T18:15:38.081Z,99.90
2018-04-23T18:18:04.415Z,99.90
2018-04-23T18:20:30.853Z,99.90
2018-04-23T18:22:57.352Z,99.90
2018-04-23T18:25:25.476Z,99.90
2018-04-23T18:27:51.847Z,99.90
2018-04-23T18:30:18.943Z,99.90
2018-04-23T18:32:45.356Z,99.90
2018-04-23T18:35:11.686Z,99.90
2018-04-23T18:37:38.089Z,99.90
2018-04-23T18:40:05.197Z,99.90
2018-04-23T18:42:31.621Z,99.90
2018-04-23T18:44:57.952Z,99.90
2018-04-23T18:47:24.278Z,99.90
2018-04-23T18:49:50.739Z,99.90
2018-04-23T18:52:17.595Z,99.90
2018-04-23T18:54:44.688Z,99.90
2018-04-23T18:57:11.113Z,99.90
2018-04-23T18:59:37.528Z,99.90
2018-04-23T19:02:04.618Z,99.90
2018-04-23T19:04:31.026Z,99.90
2018-04-23T19:06:57.387Z,99.90
2018-04-23T19:09:23.786Z,99.90
2018-04-23T19:11:50.169Z,99.90
2018-04-23T19:14:16.589Z,99.90
2018-04-23T19:16:42.911Z,99.90
2018-04-23T19:19:09.256Z,99.90
2018-04-23T19:21:35.613Z,99.90
2018-04-23T19:24:01.950Z,99.90
2018-04-23T19:26:29.025Z,99.90
2018-04-23T19:28:55.379Z,99.90
2018-04-23T19:31:21.697Z,99.90
2018-04-23T19:33:48.145Z,99.90
2018-04-23T19:36:14.623Z,99.90
2018-04-23T19:38:40.971Z,99.90
2018-04-23T19:41:08.085Z,99.90
2018-04-23T19:43:34.485Z,99.90
2018-04-23T19:46:00.833Z,99.90
2018-04-23T19:48:27.290Z,99.90
2018-04-23T19:50:53.774Z,99.90
2018-04-23T19:53:20.119Z,99.90
2018-04-23T19:55:46.461Z,99.90
2018-04-23T19:58:12.821Z,99.90
2018-04-23T20:00:39.235Z,99.90
2018-04-23T20:03:06.726Z,99.90
2018-04-23T20:05:33.833Z,99.90
2018-04-23T20:08:00.458Z,99.90
2018-04-23T20:10:26.792Z,99.90
2018-04-23T20:12:53.252Z,99.90
2018-04-23T20:15:19.688Z,99.90
2018-04-23T20:17:46.863Z,99.90
2018-04-23T20:20:13.949Z,99.90
2018-04-23T20:22:40.295Z,99.90
2018-04-23T20:25:06.630Z,99.90
2018-04-23T20:27:32.992Z,99.90
2018-04-23T20:30:00.050Z,99.90
2018-04-23T20:32:28.190Z,99.90
2018-04-23T20:34:54.599Z,99.90
2018-04-23T20:37:21.070Z,99.90
2018-04-23T20:39:47.477Z,99.90
2018-04-23T20:42:13.808Z,99.90
2018-04-23T20:44:40.129Z,99.90
2018-04-23T20:47:06.568Z,99.90
2018-04-23T20:49:33.053Z,99.90
2018-04-23T20:52:00.138Z,99.90
2018-04-23T20:54:26.497Z,99.90
2018-04-23T20:56:52.964Z,99.90
2018-04-23T20:59:20.095Z,99.90
2018-04-23T21:01:46.446Z,99.90
2018-04-23T21:04:13.616Z,99.90
2018-04-23T21:06:39.941Z,99.90
2018-04-23T21:09:07.030Z,99.90
2018-04-23T21:11:33.356Z,99.90
2018-04-23T21:13:59.692Z,99.90
2018-04-23T21:16:26.022Z,99.90
2018-04-23T21:18:52.345Z,99.90
2018-04-23T21:21:18.660Z,99.90
2018-04-23T21:23:44.978Z,99.90
2018-04-23T21:26:11.332Z,99.90
2018-04-23T21:28:37.668Z,99.90
2018-04-23T21:31:04.029Z,99.90
2018-04-23T21:33:30.360Z,99.90
2018-04-23T21:35:56.688Z,99.90
2018-04-23T21:38:24.037Z,99.90
2018-04-23T21:40:50.367Z,99.90
2018-04-23T21:43:16.705Z,99.90
2018-04-23T21:45:43.036Z,99.90
2018-04-23T21:48:09.376Z,99.90
2018-04-23T21:50:35.703Z,99.90
2018-04-23T21:53:02.033Z,99.90
2018-04-23T21:55:28.347Z,99.90
2018-04-23T21:57:54.670Z,99.90
2018-04-23T22:00:22.017Z,99.90
2018-04-23T22:02:48.352Z,99.90
2018-04-23T22:05:14.723Z,99.90
2018-04-23T22:07:41.797Z,99.90
2018-04-23T22:10:08.150Z,99.90
2018-04-23T22:12:34.500Z,99.90
2018-04-23T22:15:00.837Z,99.90
2018-04-23T22:17:27.141Z,99.90
2018-04-23T22:19:53.451Z,99.90
2018-04-23T22:22:19.776Z,99.90
2018-04-23T22:24:46.846Z,99.90
2018-04-23T22:27:13.152Z,99.90
2018-04-23T22:29:40.213Z,99.90
2018-04-23T22:32:06.597Z,99.90
2018-04-23T22:34:32.902Z,99.90
2018-04-23T22:36:59.248Z,99.90
2018-04-23T22:39:25.573Z,99.90
2018-04-23T22:41:51.889Z,99.90
2018-04-23T22:44:18.219Z,99.90
2018-04-23T22:46:44.584Z,99.90
2018-04-23T22:49:10.905Z,99.90
2018-04-23T22:51:37.228Z,99.90
2018-04-23T22:54:03.569Z,99.90
2018-04-23T22:56:31.577Z,99.90
2018-04-23T22:58:57.973Z,99.90
2018-04-23T23:01:24.281Z,99.90
2018-04-23T23:03:50.626Z,99.90
2018-04-23T23:06:16.956Z,99.90
2018-04-23T23:08:43.301Z,99.90
2018-04-23T23:11:09.621Z,99.90
2018-04-23T23:13:36.938Z,99.90
2018-04-23T23:16:03.281Z,99.90
2018-04-23T23:18:29.629Z,99.90
2018-04-23T23:20:55.972Z,99.90
2018-04-23T23:23:22.292Z,99.90
2018-04-23T23:25:50.113Z,99.90
2018-04-23T23:28:16.438Z,99.90
2018-04-23T23:30:42.779Z,99.90
2018-04-23T23:33:09.109Z,99.90
2018-04-23T23:35:35.450Z,99.90
2018-04-23T23:38:01.782Z,99.90
2018-04-23T23:40:28.093Z,99.90
2018-04-23T23:42:54.406Z,99.90
2018-04-23T23:45:22.496Z,99.90
2018-04-23T23:47:48.818Z,99.90
2018-04-23T23:50:15.973Z,99.90
2018-04-23T23:52:42.283Z,99.90
2018-04-23T23:55:09.433Z,99.90
2018-04-23T23:57:36.557Z,99.90
